createdAt,value
2019-06-26T00:35:19.955Z,20.35
2019-06-26T00:40:25.062Z,20.72
2019-06-26T00:45:30.555Z,20.82
2019-06-26T00:50:35.703Z,19.30
2019-06-26T00:55:40.768Z,19.02
2019-06-26T01:00:51.998Z,18.73
2019-06-26T01:05:57.770Z,20.35
2019-06-26T01:11:03.435Z,19.85
2019-06-26T01:16:09.702Z,19.77
2019-06-26T01:21:14.769Z,20.17
2019-06-26T01:26:19.926Z,20.68
2019-06-26T01:31:25.031Z,19.07
2019-06-26T01:36:30.110Z,18.70
2019-06-26T01:41:36.293Z,17.93
2019-06-26T01:46:41.469Z,19.50
2019-06-26T01:51:49.334Z,18.62
2019-06-26T01:56:54.426Z,19.05
2019-06-26T02:01:59.469Z,19.40
2019-06-26T02:07:04.962Z,19.65
2019-06-26T02:12:10.043Z,20.10
2019-06-26T02:17:15.120Z,20.15
2019-06-26T02:22:20.421Z,23.22
2019-06-26T02:27:25.891Z,21.35
2019-06-26T02:32:30.996Z,20.02
2019-06-26T02:37:37.317Z,20.55
2019-06-26T02:42:43.528Z,22.65
2019-06-26T02:47:48.652Z,20.37
2019-06-26T02:52:53.713Z,19.55
2019-06-26T02:57:58.771Z,17.62
2019-06-26T03:03:03.868Z,20.45
2019-06-26T03:08:08.896Z,24.45
2019-06-26T03:13:14.020Z,28.62
2019-06-26T03:18:19.461Z,17.50
2019-06-26T03:23:25.036Z,17.77
2019-06-26T03:28:30.148Z,18.55
2019-06-26T03:33:35.317Z,18.45
2019-06-26T03:38:40.427Z,19.87
2019-06-26T03:43:45.904Z,21.48
2019-06-26T03:48:51.220Z,22.52
2019-06-26T03:53:56.364Z,23.65
2019-06-26T03:59:01.557Z,18.95
2019-06-26T04:04:06.642Z,20.95
2019-06-26T04:09:11.816Z,21.02
2019-06-26T04:14:16.989Z,27.05
2019-06-26T04:19:23.218Z,22.15
2019-06-26T04:24:28.379Z,22.93
2019-06-26T04:29:33.754Z,23.65
2019-06-26T04:34:39.331Z,24.80
2019-06-26T04:39:44.720Z,30.35
2019-06-26T04:44:49.841Z,35.78
2019-06-26T04:49:55.260Z,39.92
2019-06-26T04:55:00.368Z,26.77
2019-06-26T05:00:07.896Z,23.70
2019-06-26T05:05:13.271Z,24.18
2019-06-26T05:10:19.076Z,27.48
2019-06-26T05:15:24.177Z,28.70
2019-06-26T05:20:29.229Z,28.67
2019-06-26T05:25:39.579Z,25.68
2019-06-26T05:30:45.366Z,21.17
2019-06-26T05:35:50.484Z,23.45
2019-06-26T05:40:55.484Z,23.20
2019-06-26T05:46:00.514Z,26.07
2019-06-26T05:51:06.869Z,24.02
2019-06-26T05:56:12.421Z,26.40
2019-06-26T06:01:17.964Z,28.20
2019-06-26T06:06:23.408Z,29.90
2019-06-26T06:11:28.924Z,32.53
2019-06-26T06:16:46.883Z,32.03
2019-06-26T06:21:42.328Z,32.53
2019-06-26T06:26:47.399Z,31.90
2019-06-26T06:31:52.970Z,34.05
2019-06-26T06:36:58.691Z,34.70
2019-06-26T06:42:04.156Z,30.88
2019-06-26T06:47:09.581Z,35.20
2019-06-26T06:52:16.798Z,31.75
2019-06-26T06:57:21.627Z,32.20
2019-06-26T07:02:26.655Z,34.25
2019-06-26T07:07:31.803Z,32.00
2019-06-26T07:12:39.231Z,34.10
2019-06-26T07:17:44.300Z,33.15
2019-06-26T07:22:50.077Z,31.82
2019-06-26T07:27:55.403Z,30.88
2019-06-26T07:33:00.502Z,34.38
2019-06-26T07:38:05.641Z,31.15
2019-06-26T07:43:10.647Z,30.43
2019-06-26T07:48:15.827Z,30.27
2019-06-26T07:53:21.095Z,29.50
2019-06-26T07:58:26.110Z,32.00
2019-06-26T08:03:32.075Z,31.50
2019-06-26T08:08:37.233Z,31.90
2019-06-26T08:13:42.382Z,31.77
2019-06-26T08:18:48.889Z,34.03
2019-06-26T08:23:54.339Z,34.23
2019-06-26T08:29:00.321Z,36.80
2019-06-26T08:34:05.405Z,37.73
2019-06-26T08:39:10.828Z,32.40
2019-06-26T08:44:19.023Z,35.28
2019-06-26T08:49:26.404Z,33.40
2019-06-26T08:54:33.608Z,32.33
2019-06-26T08:59:38.730Z,34.70
2019-06-26T09:04:43.815Z,35.98
2019-06-26T09:09:49.341Z,35.10
2019-06-26T09:14:54.434Z,30.73
2019-06-26T09:19:59.603Z,29.67
2019-06-26T09:25:21.645Z,34.43
2019-06-26T09:30:18.355Z,30.97
2019-06-26T09:35:23.473Z,33.18
2019-06-26T09:40:31.863Z,35.37
2019-06-26T09:45:37.250Z,33.48
2019-06-26T09:50:43.014Z,35.30
2019-06-26T09:55:58.510Z,35.53
2019-06-26T10:01:03.708Z,33.50
2019-06-26T10:06:09.037Z,32.00
2019-06-26T10:11:14.933Z,31.00
2019-06-26T10:16:20.118Z,28.50
2019-06-26T10:21:26.753Z,29.25
2019-06-26T10:26:32.872Z,32.50
2019-06-26T10:31:37.912Z,32.60
2019-06-26T10:36:44.291Z,33.90
2019-06-26T10:41:49.956Z,36.30
2019-06-26T10:46:58.573Z,35.85
2019-06-26T10:52:04.927Z,34.30
2019-06-26T10:57:10.047Z,33.77
2019-06-26T11:02:16.992Z,36.80
2019-06-26T11:07:22.252Z,34.60
2019-06-26T11:12:28.048Z,36.48
2019-06-26T11:17:34.518Z,39.50
2019-06-26T11:22:39.674Z,34.93
2019-06-26T11:27:44.714Z,35.50
2019-06-26T11:32:50.149Z,31.70
2019-06-26T11:37:58.170Z,35.40
2019-06-26T11:43:03.423Z,34.45
2019-06-26T11:48:09.502Z,35.38
2019-06-26T11:53:14.771Z,40.00
2019-06-26T11:58:22.708Z,36.42
2019-06-26T12:03:37.831Z,39.25
2019-06-26T12:08:43.331Z,44.43
2019-06-26T12:13:48.474Z,35.10
2019-06-26T12:18:53.586Z,37.30
2019-06-26T12:24:00.113Z,37.23
2019-06-26T12:29:05.264Z,36.17
2019-06-26T12:34:10.394Z,41.85
2019-06-26T12:39:15.599Z,37.70
2019-06-26T12:44:21.571Z,35.20
2019-06-26T12:49:27.129Z,41.80
2019-06-26T12:54:32.238Z,35.98
2019-06-26T12:59:52.705Z,35.83
2019-06-26T13:04:46.214Z,38.42
2019-06-26T13:09:51.593Z,39.23
2019-06-26T13:14:57.468Z,38.20
2019-06-26T13:20:02.575Z,39.50
2019-06-26T13:25:15.934Z,37.83
2019-06-26T13:30:27.797Z,39.10
2019-06-26T13:35:33.095Z,38.33
2019-06-26T13:40:41.106Z,37.87
2019-06-26T13:45:46.449Z,38.25
2019-06-26T13:51:08.806Z,36.25
2019-06-26T13:56:04.326Z,38.47
2019-06-26T14:01:11.451Z,41.98
2019-06-26T14:06:19.661Z,39.78
2019-06-26T14:11:24.727Z,40.80
2019-06-26T14:16:31.880Z,41.57
2019-06-26T14:21:38.585Z,35.95
2019-06-26T14:26:43.690Z,42.23
2019-06-26T14:31:51.579Z,41.42
2019-06-26T14:37:03.840Z,39.10
2019-06-26T14:42:09.014Z,37.42
2019-06-26T14:47:15.599Z,40.15
2019-06-26T14:52:22.301Z,43.17
2019-06-26T14:57:27.638Z,39.18
2019-06-26T15:02:37.589Z,41.65
2019-06-26T15:07:44.111Z,40.47
2019-06-26T15:12:49.722Z,38.43
2019-06-26T15:17:58.301Z,42.10
2019-06-26T15:23:06.036Z,39.95
2019-06-26T15:28:12.286Z,42.05
2019-06-26T15:33:19.322Z,38.53
2019-06-26T15:38:24.543Z,42.20
2019-06-26T15:43:31.751Z,40.83
2019-06-26T15:48:37.040Z,39.85
2019-06-26T15:53:42.090Z,42.55
2019-06-26T15:58:47.137Z,37.55
2019-06-26T16:03:52.294Z,39.07
2019-06-26T16:08:57.468Z,41.02
2019-06-26T16:14:02.531Z,38.45
2019-06-26T16:19:11.819Z,38.40
2019-06-26T16:24:16.864Z,41.48
2019-06-26T16:29:24.321Z,40.30
2019-06-26T16:34:31.114Z,37.78
2019-06-26T16:39:36.396Z,39.30
2019-06-26T16:44:47.015Z,37.50
2019-06-26T16:49:52.321Z,39.85
2019-06-26T16:54:58.527Z,37.60
2019-06-26T17:00:09.540Z,41.53
2019-06-26T17:05:12.543Z,37.48
2019-06-26T17:10:18.175Z,38.83
2019-06-26T17:15:23.264Z,36.75
2019-06-26T17:20:28.482Z,34.03
2019-06-26T17:25:33.648Z,35.53
2019-06-26T17:30:38.749Z,34.50
2019-06-26T17:35:43.835Z,37.35
2019-06-26T17:40:50.251Z,36.00
2019-06-26T17:46:00.849Z,41.63
2019-06-26T17:51:06.257Z,39.87
2019-06-26T17:56:11.345Z,36.55
2019-06-26T18:01:19.232Z,39.83
2019-06-26T18:06:27.053Z,35.30
2019-06-26T18:11:32.626Z,36.53
2019-06-26T18:16:38.557Z,30.68
2019-06-26T18:21:44.909Z,32.05
2019-06-26T18:26:51.483Z,28.42
2019-06-26T18:31:56.652Z,26.68
2019-06-26T18:37:02.310Z,30.02
2019-06-26T18:42:07.536Z,31.07
2019-06-26T18:47:12.952Z,29.77
2019-06-26T18:52:21.692Z,30.82
2019-06-26T18:57:28.270Z,32.05
2019-06-26T19:02:33.425Z,28.57
2019-06-26T19:07:38.668Z,31.12
2019-06-26T19:12:44.773Z,32.48
2019-06-26T19:17:49.880Z,30.80
2019-06-26T19:22:54.998Z,28.20
2019-06-26T19:28:00.262Z,30.00
2019-06-26T19:33:12.577Z,29.00
2019-06-26T19:38:17.696Z,30.27
2019-06-26T19:43:23.150Z,24.12
2019-06-26T19:48:28.279Z,24.05
2019-06-26T19:53:33.468Z,24.02
2019-06-26T19:58:39.743Z,27.60
2019-06-26T20:03:44.931Z,28.00
2019-06-26T20:08:54.650Z,23.90
2019-06-26T20:13:57.100Z,29.25
2019-06-26T20:19:02.302Z,25.72
2019-06-26T20:24:07.355Z,26.42
2019-06-26T20:29:12.873Z,27.13
2019-06-26T20:34:18.424Z,25.93
2019-06-26T20:39:23.533Z,25.85
2019-06-26T20:44:28.899Z,27.13
2019-06-26T20:49:34.070Z,24.00
2019-06-26T20:54:39.368Z,25.20
2019-06-26T20:59:44.492Z,26.27
2019-06-26T21:04:50.225Z,24.98
2019-06-26T21:09:55.317Z,23.75
2019-06-26T21:15:00.434Z,19.50
2019-06-26T21:20:06.140Z,21.70
2019-06-26T21:25:18.967Z,21.73
2019-06-26T21:30:18.353Z,22.82
2019-06-26T21:35:23.776Z,23.43
2019-06-26T21:40:28.962Z,21.97
2019-06-26T21:45:34.142Z,19.77
2019-06-26T21:50:39.253Z,18.65
2019-06-26T21:55:44.388Z,17.45
2019-06-26T22:01:07.421Z,18.77
2019-06-26T22:06:30.508Z,18.80
2019-06-26T22:11:43.002Z,20.57
2019-06-26T22:16:48.282Z,19.07
2019-06-26T22:21:53.717Z,19.92
2019-06-26T22:26:58.825Z,19.70
2019-06-26T22:32:04.346Z,17.80
2019-06-26T22:37:11.027Z,19.42
2019-06-26T22:42:16.492Z,20.32
2019-06-26T22:47:21.877Z,25.65
2019-06-26T22:52:26.953Z,19.87
2019-06-26T22:57:32.517Z,17.52
2019-06-26T23:02:37.581Z,17.43
2019-06-26T23:07:43.170Z,20.85
2019-06-26T23:12:48.263Z,21.27
2019-06-26T23:17:53.703Z,17.35
2019-06-26T23:22:58.834Z,18.25
2019-06-26T23:28:04.203Z,17.60
2019-06-26T23:33:09.793Z,18.00
2019-06-26T23:38:16.326Z,23.25
2019-06-26T23:43:21.373Z,20.65
2019-06-26T23:48:26.705Z,19.27
2019-06-26T23:53:31.757Z,19.00
2019-06-26T23:58:38.962Z,21.35
